01:15
Airports
History
Links
Donate
Help keep this website running!
PayPal
Bitcoin
Information on this page is community maintained and may be outdated or inaccurate and is intended for reference only or PC simulator navigating!
Always use approved charts for navigating.
N04
Griswold
Griswold (N04)
Madison, Connecticut, United States (6443)
(U)
Lat/Lng:41° 16' 16.25" N / 72° 32' 59" W
41.27118 / -72.549721
Elevation:15'ft 5mMSL
ID / ICAO:N04
Runways:1
Longest:(06-24) 563.3m 1,848ft Asphalt
Distance To
Airport ID:
Nearby VORs <50NM
Nearby NDBs
Nearby WeatherUpdated 04-27-17 00:53 GMT
Nearby weather at KHVN, Tweed-new Haven located 17.5 nautical miles from N04
Altimeter: 29.83
Visibility: 10.0 statute miles
Wind: 0 knots (000°)
Temp: 12°c 54°f
Humidity: 100.0%

METAR: KHVN 270053Z 00000KT 10SM OVC014 12/12 A2983 RMK AO2 SLP099 T01220117

(Powered by phpweather)
Runway 06 / 24
Dimensions:563.3 x 15.2m 1848' x 50'ft
Surface:Asphalt
Runway 06 [A]Runway 24 [B]
Heading:044°TH 224°TH
Lat:
Lng:
41° 16' 9.73"N
72° 33' 7.61"W
41° 16' 22.76"N
72° 32' 50.38"W
Google Map
Nearby Airports
(U) Chester 8.1 NM
KSNC NNE 16°
(U) Goodspeed 13.0 NM
42B NNE 22°
(R) Maplewood Farm 15.9 NM
CT39 NNW 328°
(R) Rose Field 16.2 NM
2NK3 ESE 119°
(R) Devils Hopyard Field 16.2 NM
CT11 NE 42°
(C) Tweed-new Haven 17.5 NM
KHVN (WX) W 268°
(R) Westmoreland 18.0 NM
49NY SE 139°
VFR Chart
Flight Planning at SkyVector.com